Time;durP1;ratioP1;P1;durP2;ratioP2;P2;SDS_P1;SDS_P2;PMS_P1;PMS_P2;Temp;Humidity;BMP_temperature;BMP_pressure;BME280_temperature;BME280_humidity;BME280_pressure;Samples;Min_cycle;Max_cycle;Signal;HPM_P1;HPM_P2
2022/03/29 00:01:20;;;;;;;58.17;45.50;;;;;;;;;;4981151;28;20038;-69
2022/03/29 00:03:46;;;;;;;64.75;49.15;;;;;;;;;;4988364;28;20042;-69
2022/03/29 00:06:12;;;;;;;58.90;46.42;;;;;;;;;;4985606;28;20046;-68
2022/03/29 00:08:38;;;;;;;61.10;45.92;;;;;;;;;;4974236;28;20081;-67
2022/03/29 00:11:04;;;;;;;59.90;45.05;;;;;;;;;;4985444;28;20042;-68
2022/03/29 00:13:30;;;;;;;56.83;44.72;;;;;;;;;;4976932;28;20041;-68
2022/03/29 00:15:56;;;;;;;62.58;47.00;;;;;;;;;;4991116;28;20046;-67
2022/03/29 00:18:22;;;;;;;51.72;39.92;;;;;;;;;;4984769;28;20117;-68
2022/03/29 00:20:48;;;;;;;50.67;37.92;;;;;;;;;;4985240;28;20498;-67
2022/03/29 00:23:14;;;;;;;46.00;35.33;;;;;;;;;;4990585;28;20054;-68
2022/03/29 00:25:40;;;;;;;44.22;34.33;;;;;;;;;;4990160;28;20136;-68
2022/03/29 00:28:06;;;;;;;43.70;33.38;;;;;;;;;;4987051;28;20034;-68
2022/03/29 00:30:32;;;;;;;46.20;34.17;;;;;;;;;;4978111;28;20050;-68
2022/03/29 00:32:58;;;;;;;44.85;34.15;;;;;;;;;;4987454;28;20042;-68
2022/03/29 00:35:24;;;;;;;45.97;34.78;;;;;;;;;;4991607;28;20046;-68
2022/03/29 00:37:51;;;;;;;46.17;36.03;;;;;;;;;;4992135;28;20052;-68
2022/03/29 00:40:19;;;;;;;51.40;38.05;;;;;;;;;;4970651;28;20054;-68
2022/03/29 00:42:45;;;;;;;56.90;39.28;;;;;;;;;;4984083;28;20054;-68
2022/03/29 00:45:11;;;;;;;48.90;36.40;;;;;;;;;;4992730;28;20121;-68
2022/03/29 00:47:37;;;;;;;42.85;33.25;;;;;;;;;;4989928;28;20048;-68
2022/03/29 00:50:04;;;;;;;50.25;34.95;;;;;;;;;;4988078;28;20513;-68
2022/03/29 00:52:30;;;;;;;48.60;35.47;;;;;;;;;;4985203;28;20069;-68
2022/03/29 00:54:57;;;;;;;44.20;34.72;;;;;;;;;;4986284;28;20042;-69
2022/03/29 00:57:25;;;;;;;46.42;34.33;;;;;;;;;;4985064;28;20084;-68
2022/03/29 00:59:52;;;;;;;43.95;33.13;;;;;;;;;;4990937;28;20046;-68
2022/03/29 01:02:18;;;;;;;48.67;33.65;;;;;;;;;;4992261;28;20038;-68
2022/03/29 01:04:44;;;;;;;46.30;31.33;;;;;;;;;;4983042;28;20042;-69
2022/03/29 01:07:10;;;;;;;39.22;28.55;;;;;;;;;;4973381;28;20047;-69
2022/03/29 01:09:36;;;;;;;37.17;27.90;;;;;;;;;;4992166;28;20045;-68
2022/03/29 01:12:02;;;;;;;41.50;29.27;;;;;;;;;;4989362;28;20434;-68
2022/03/29 01:14:29;;;;;;;41.83;28.85;;;;;;;;;;4981579;28;20130;-69
2022/03/29 01:19:41;;;;;;;40.08;28.95;;;;;;;;;;4990361;28;20050;-69
2022/03/29 01:22:09;;;;;;;39.50;29.35;;;;;;;;;;4988855;28;20042;-69
2022/03/29 01:24:41;;;;;;;40.40;29.90;;;;;;;;;;4992923;28;20439;-68
2022/03/29 01:27:10;;;;;;;43.80;31.40;;;;;;;;;;4994790;28;20046;-68
2022/03/29 01:29:37;;;;;;;45.60;31.20;;;;;;;;;;4991569;28;20084;-68
2022/03/29 01:32:04;;;;;;;46.92;32.50;;;;;;;;;;4980026;28;20046;-68
2022/03/29 01:34:31;;;;;;;45.03;31.73;;;;;;;;;;4980909;28;20042;-68
2022/03/29 01:36:57;;;;;;;46.40;32.33;;;;;;;;;;4989524;28;20626;-68
2022/03/29 01:39:23;;;;;;;51.65;32.88;;;;;;;;;;4988913;28;20051;-68
2022/03/29 01:41:49;;;;;;;50.08;34.47;;;;;;;;;;4980622;28;20054;-68
2022/03/29 01:44:16;;;;;;;47.30;32.85;;;;;;;;;;4988648;28;20046;-67
2022/03/29 01:46:43;;;;;;;55.50;35.10;;;;;;;;;;4992908;28;20386;-67
2022/03/29 01:49:10;;;;;;;51.20;34.65;;;;;;;;;;4989213;28;20042;-68
2022/03/29 01:51:36;;;;;;;50.08;35.30;;;;;;;;;;4989694;28;20054;-68
2022/03/29 01:54:02;;;;;;;47.08;33.97;;;;;;;;;;4977582;28;20053;-68
2022/03/29 01:56:31;;;;;;;49.88;33.03;;;;;;;;;;4977292;28;20042;-68
2022/03/29 01:59:04;;;;;;;48.03;33.97;;;;;;;;;;4991357;28;20051;-68
2022/03/29 02:01:30;;;;;;;53.88;35.17;;;;;;;;;;4987165;28;20049;-68
2022/03/29 02:03:56;;;;;;;49.95;33.55;;;;;;;;;;4976212;28;20417;-68
2022/03/29 02:06:22;;;;;;;49.17;34.00;;;;;;;;;;4986860;28;20130;-68
2022/03/29 02:08:49;;;;;;;51.97;33.88;;;;;;;;;;4994330;28;20042;-68
2022/03/29 02:11:16;;;;;;;52.20;33.30;;;;;;;;;;4993293;28;20056;-68
2022/03/29 02:13:42;;;;;;;50.22;34.35;;;;;;;;;;4995717;28;20454;-68
2022/03/29 02:16:08;;;;;;;50.65;33.17;;;;;;;;;;4994855;28;20392;-69
2022/03/29 02:18:35;;;;;;;50.40;34.30;;;;;;;;;;4974354;28;20069;-68
2022/03/29 02:21:01;;;;;;;47.58;33.38;;;;;;;;;;4970721;28;20046;-67
2022/03/29 02:23:27;;;;;;;51.22;33.97;;;;;;;;;;4988026;28;20046;-68
2022/03/29 02:25:53;;;;;;;49.33;33.53;;;;;;;;;;4993726;28;20050;-68
2022/03/29 02:28:19;;;;;;;54.95;34.97;;;;;;;;;;4978004;28;20405;-69
2022/03/29 02:30:46;;;;;;;56.13;34.88;;;;;;;;;;4987280;28;20047;-69
2022/03/29 02:33:12;;;;;;;51.67;35.10;;;;;;;;;;4986429;28;20054;-68
2022/03/29 02:35:39;;;;;;;52.28;34.28;;;;;;;;;;4976490;28;20057;-68
2022/03/29 02:38:06;;;;;;;48.97;34.17;;;;;;;;;;4992357;28;20042;-68
2022/03/29 02:40:32;;;;;;;56.65;36.28;;;;;;;;;;4986198;28;20466;-68
2022/03/29 02:42:58;;;;;;;52.53;35.17;;;;;;;;;;4993738;28;20050;-68
2022/03/29 02:45:26;;;;;;;54.35;33.97;;;;;;;;;;4972926;28;20054;-67
2022/03/29 02:47:53;;;;;;;49.90;34.45;;;;;;;;;;4985546;28;20050;-67
2022/03/29 02:50:20;;;;;;;49.47;34.28;;;;;;;;;;4981606;28;20502;-68
2022/03/29 02:52:47;;;;;;;54.55;33.22;;;;;;;;;;4976702;28;20077;-68
2022/03/29 02:55:14;;;;;;;47.88;33.05;;;;;;;;;;4984478;28;20130;-68
2022/03/29 02:57:40;;;;;;;53.63;33.20;;;;;;;;;;4994818;28;20086;-66
2022/03/29 03:00:06;;;;;;;51.55;33.35;;;;;;;;;;4989325;28;20042;-68
2022/03/29 03:02:32;;;;;;;53.75;34.15;;;;;;;;;;4991345;28;21134;-68
2022/03/29 03:04:59;;;;;;;52.95;34.17;;;;;;;;;;4988702;28;20041;-68
2022/03/29 03:07:25;;;;;;;56.40;34.55;;;;;;;;;;4993254;28;20066;-68
2022/03/29 03:09:51;;;;;;;52.88;33.05;;;;;;;;;;4993666;28;20046;-68
2022/03/29 03:12:18;;;;;;;47.42;32.13;;;;;;;;;;4984520;28;20130;-68
2022/03/29 03:14:44;;;;;;;46.55;31.80;;;;;;;;;;4992862;28;20437;-68
2022/03/29 03:17:10;;;;;;;47.22;30.20;;;;;;;;;;4967031;28;20097;-68
2022/03/29 03:19:36;;;;;;;42.13;28.85;;;;;;;;;;4991360;28;20132;-69
2022/03/29 03:22:03;;;;;;;40.90;27.88;;;;;;;;;;4990231;28;20042;-69
2022/03/29 03:24:29;;;;;;;39.88;28.10;;;;;;;;;;4992398;28;20383;-67
2022/03/29 03:26:55;;;;;;;47.20;27.60;;;;;;;;;;4992704;28;20493;-67
2022/03/29 03:29:21;;;;;;;39.90;27.30;;;;;;;;;;4969196;28;20498;-67
2022/03/29 03:31:47;;;;;;;42.00;27.80;;;;;;;;;;4982559;28;20063;-67
2022/03/29 03:34:13;;;;;;;40.55;26.88;;;;;;;;;;4982560;28;20038;-68
2022/03/29 03:36:39;;;;;;;40.80;26.83;;;;;;;;;;4973739;28;20486;-67
2022/03/29 03:39:05;;;;;;;36.25;26.38;;;;;;;;;;4989379;28;20039;-67
2022/03/29 03:41:32;;;;;;;41.80;27.67;;;;;;;;;;4981753;28;20057;-68
2022/03/29 03:43:58;;;;;;;42.33;27.17;;;;;;;;;;4986198;28;20545;-68
2022/03/29 03:46:24;;;;;;;38.85;26.75;;;;;;;;;;4985751;28;20513;-69
2022/03/29 03:48:50;;;;;;;39.05;27.13;;;;;;;;;;4982717;28;20050;-68
2022/03/29 03:51:16;;;;;;;40.03;27.83;;;;;;;;;;4990602;28;20046;-68
2022/03/29 03:53:42;;;;;;;38.05;25.77;;;;;;;;;;4993264;28;20050;-69
2022/03/29 03:56:08;;;;;;;39.20;27.75;;;;;;;;;;4988539;28;20043;-69
2022/03/29 03:58:34;;;;;;;40.63;25.73;;;;;;;;;;4989694;28;20034;-68
2022/03/29 04:01:00;;;;;;;38.80;27.33;;;;;;;;;;4987534;28;20038;-68
2022/03/29 04:03:26;;;;;;;40.10;26.02;;;;;;;;;;4991133;28;20374;-69
2022/03/29 04:05:52;;;;;;;39.22;25.60;;;;;;;;;;4989541;28;20050;-68
2022/03/29 04:08:18;;;;;;;36.00;25.40;;;;;;;;;;4985492;28;20047;-68
2022/03/29 04:10:45;;;;;;;37.20;25.23;;;;;;;;;;4979526;28;20066;-68
2022/03/29 04:13:11;;;;;;;37.53;25.70;;;;;;;;;;4982388;28;20034;-68
2022/03/29 04:15:37;;;;;;;39.05;25.30;;;;;;;;;;4988335;28;20050;-68
2022/03/29 04:18:03;;;;;;;39.30;25.45;;;;;;;;;;4983728;28;20046;-68
2022/03/29 04:20:29;;;;;;;40.08;26.85;;;;;;;;;;4989406;28;20504;-68
2022/03/29 04:22:55;;;;;;;38.15;26.52;;;;;;;;;;4987898;28;20493;-68
2022/03/29 04:25:22;;;;;;;35.63;26.20;;;;;;;;;;4992788;28;20038;-68
2022/03/29 04:27:48;;;;;;;42.88;27.33;;;;;;;;;;4983288;28;20125;-68
2022/03/29 04:30:14;;;;;;;42.15;28.65;;;;;;;;;;4987124;28;20130;-68
2022/03/29 04:32:40;;;;;;;40.65;28.02;;;;;;;;;;4978252;28;20450;-68
2022/03/29 04:35:06;;;;;;;42.22;27.27;;;;;;;;;;4974428;28;20043;-68
2022/03/29 04:37:32;;;;;;;38.70;27.92;;;;;;;;;;4986106;28;20034;-69
2022/03/29 04:39:59;;;;;;;40.30;26.75;;;;;;;;;;4991367;28;20070;-69
2022/03/29 04:42:25;;;;;;;39.95;28.70;;;;;;;;;;4991302;28;20042;-68
2022/03/29 04:44:51;;;;;;;44.60;27.67;;;;;;;;;;4992161;28;20401;-69
2022/03/29 04:47:17;;;;;;;44.75;27.73;;;;;;;;;;4989735;28;20101;-66
2022/03/29 04:49:43;;;;;;;42.38;27.80;;;;;;;;;;4991285;28;20039;-69
2022/03/29 04:52:10;;;;;;;40.13;27.38;;;;;;;;;;4989302;28;20065;-69
2022/03/29 04:54:36;;;;;;;39.30;26.90;;;;;;;;;;4986748;28;20540;-68
2022/03/29 04:57:03;;;;;;;43.47;28.10;;;;;;;;;;4985806;28;20047;-68
2022/03/29 04:59:29;;;;;;;46.75;28.52;;;;;;;;;;4976739;28;20105;-68
2022/03/29 05:01:56;;;;;;;47.97;28.75;;;;;;;;;;4992150;28;20042;-68
2022/03/29 05:04:22;;;;;;;42.20;28.30;;;;;;;;;;4992832;28;20042;-67
2022/03/29 05:06:48;;;;;;;44.97;28.80;;;;;;;;;;4995265;28;20050;-69
2022/03/29 05:09:14;;;;;;;46.05;30.00;;;;;;;;;;4975485;28;20042;-68
2022/03/29 05:11:40;;;;;;;39.05;27.95;;;;;;;;;;4977565;28;20082;-69
2022/03/29 05:14:06;;;;;;;46.92;29.63;;;;;;;;;;4981213;28;20047;-68
2022/03/29 05:16:32;;;;;;;44.80;30.10;;;;;;;;;;4992128;28;20050;-69
2022/03/29 05:18:59;;;;;;;47.17;30.58;;;;;;;;;;4991028;28;20053;-69
2022/03/29 05:21:25;;;;;;;43.85;28.60;;;;;;;;;;4974051;28;20390;-69
2022/03/29 05:23:51;;;;;;;45.33;30.17;;;;;;;;;;4994085;28;20421;-68
2022/03/29 05:26:17;;;;;;;42.92;29.73;;;;;;;;;;4988024;28;20038;-68
2022/03/29 05:28:43;;;;;;;49.08;30.10;;;;;;;;;;4992397;28;20050;-68
2022/03/29 05:31:09;;;;;;;48.42;30.77;;;;;;;;;;4989621;28;20039;-68
2022/03/29 05:33:35;;;;;;;42.28;29.80;;;;;;;;;;4982629;28;20105;-69
2022/03/29 05:36:03;;;;;;;46.63;30.70;;;;;;;;;;4992955;28;20050;-68
2022/03/29 05:38:29;;;;;;;47.25;31.73;;;;;;;;;;4979229;28;20046;-68
2022/03/29 05:40:55;;;;;;;48.00;31.23;;;;;;;;;;4994779;28;20117;-68
2022/03/29 05:43:21;;;;;;;48.72;31.83;;;;;;;;;;4995160;28;20046;-69
2022/03/29 05:48:52;;;;;;;46.80;31.85;;;;;;;;;;4995806;28;20129;-67
2022/03/29 05:48:53;;;;;;;49.30;32.78;;;;;;;;;;4980506;28;20050;-69
2022/03/29 05:51:20;;;;;;;48.33;31.73;;;;;;;;;;4993434;28;20089;-67
2022/03/29 05:53:46;;;;;;;50.47;32.45;;;;;;;;;;4980260;28;20074;-68
2022/03/29 05:56:12;;;;;;;51.13;32.00;;;;;;;;;;4987128;28;20058;-67
2022/03/29 05:58:38;;;;;;;49.78;33.92;;;;;;;;;;4993846;28;20074;-67
2022/03/29 06:01:04;;;;;;;51.97;33.17;;;;;;;;;;4995835;28;20133;-67
2022/03/29 06:03:30;;;;;;;54.28;34.63;;;;;;;;;;4993868;28;20390;-68
2022/03/29 06:05:56;;;;;;;52.67;33.97;;;;;;;;;;4995316;28;20412;-68
2022/03/29 06:08:22;;;;;;;55.47;34.90;;;;;;;;;;4988039;28;20125;-68
2022/03/29 06:10:48;;;;;;;51.95;33.47;;;;;;;;;;4993890;28;20081;-68
2022/03/29 06:13:14;;;;;;;50.20;34.45;;;;;;;;;;4988643;28;20038;-68
2022/03/29 06:15:41;;;;;;;53.70;35.13;;;;;;;;;;4990545;28;20038;-68
2022/03/29 06:18:07;;;;;;;55.70;37.33;;;;;;;;;;4992758;28;20061;-68
2022/03/29 06:20:33;;;;;;;52.47;34.33;;;;;;;;;;4995368;28;20050;-68
2022/03/29 06:22:59;;;;;;;55.40;35.33;;;;;;;;;;4994668;28;20050;-68
2022/03/29 06:25:25;;;;;;;54.50;37.63;;;;;;;;;;4965044;28;20422;-67
2022/03/29 06:27:52;;;;;;;55.53;36.97;;;;;;;;;;4976188;28;20047;-68
2022/03/29 06:30:18;;;;;;;52.08;36.10;;;;;;;;;;4975635;28;20512;-68
2022/03/29 06:32:48;;;;;;;55.42;37.70;;;;;;;;;;4983782;28;20050;-69
2022/03/29 06:35:15;;;;;;;56.47;37.45;;;;;;;;;;4994881;28;20401;-68
2022/03/29 06:37:41;;;;;;;54.83;36.95;;;;;;;;;;4973404;28;20051;-69
2022/03/29 06:40:08;;;;;;;57.63;37.00;;;;;;;;;;4990573;28;20057;-68
2022/03/29 06:42:34;;;;;;;54.88;37.00;;;;;;;;;;4983866;28;20053;-68
2022/03/29 06:45:00;;;;;;;53.88;36.42;;;;;;;;;;4995003;28;20042;-68
2022/03/29 06:47:26;;;;;;;54.45;36.90;;;;;;;;;;4977405;28;20374;-68
2022/03/29 06:49:53;;;;;;;54.25;36.85;;;;;;;;;;4975540;28;20055;-68
2022/03/29 06:52:19;;;;;;;55.10;37.72;;;;;;;;;;4990409;28;20062;-69
2022/03/29 06:54:45;;;;;;;53.17;36.95;;;;;;;;;;4988600;28;20039;-67
2022/03/29 06:57:11;;;;;;;54.45;36.25;;;;;;;;;;4978845;28;20049;-68
2022/03/29 06:59:37;;;;;;;56.25;36.40;;;;;;;;;;4994758;28;20046;-68
2022/03/29 07:02:03;;;;;;;53.45;38.00;;;;;;;;;;4965058;28;20053;-68
2022/03/29 07:04:29;;;;;;;55.28;37.28;;;;;;;;;;4975151;28;20054;-68
2022/03/29 07:06:55;;;;;;;57.38;38.17;;;;;;;;;;4983663;28;20054;-68
2022/03/29 07:12:06;;;;;;;62.03;38.92;;;;;;;;;;4982580;28;20405;-71
2022/03/29 07:14:32;;;;;;;59.13;39.53;;;;;;;;;;4981099;28;20180;-68
2022/03/29 07:16:59;;;;;;;56.88;39.75;;;;;;;;;;4952191;28;20047;-68
2022/03/29 07:19:27;;;;;;;57.88;38.97;;;;;;;;;;4974650;28;20057;-68
2022/03/29 07:21:54;;;;;;;59.95;39.85;;;;;;;;;;4983347;28;20053;-68
2022/03/29 07:24:20;;;;;;;54.25;36.83;;;;;;;;;;4993784;28;20461;-68
2022/03/29 07:26:46;;;;;;;56.13;38.83;;;;;;;;;;4992298;28;20047;-68
2022/03/29 07:29:12;;;;;;;56.28;37.00;;;;;;;;;;4981808;28;20096;-67
2022/03/29 07:31:38;;;;;;;59.53;37.40;;;;;;;;;;4993924;28;20050;-69
2022/03/29 07:34:05;;;;;;;53.83;38.33;;;;;;;;;;4981214;28;20049;-69
2022/03/29 07:36:31;;;;;;;57.17;40.03;;;;;;;;;;4975865;28;20046;-69
2022/03/29 07:38:57;;;;;;;55.17;36.92;;;;;;;;;;4976436;28;20056;-69
2022/03/29 07:41:23;;;;;;;56.63;37.78;;;;;;;;;;4987214;28;20507;-69
2022/03/29 07:43:49;;;;;;;54.85;36.92;;;;;;;;;;4977312;28;20398;-69
2022/03/29 07:46:15;;;;;;;57.28;38.30;;;;;;;;;;4987569;28;20050;-68
2022/03/29 07:48:41;;;;;;;49.55;33.75;;;;;;;;;;4988164;28;20050;-65
2022/03/29 07:51:10;;;;;;;52.70;33.67;;;;;;;;;;4989002;28;20129;-68
2022/03/29 07:53:36;;;;;;;45.03;31.65;;;;;;;;;;4974045;28;21098;-66
2022/03/29 07:56:04;;;;;;;53.67;36.00;;;;;;;;;;4979868;28;20121;-67
2022/03/29 07:58:30;;;;;;;58.63;36.47;;;;;;;;;;4975642;28;20058;-68
2022/03/29 08:00:56;;;;;;;58.53;38.55;;;;;;;;;;4957861;28;20042;-68
2022/03/29 08:03:22;;;;;;;59.00;37.60;;;;;;;;;;4992830;28;20053;-68
2022/03/29 08:05:49;;;;;;;53.70;36.40;;;;;;;;;;4992771;28;20042;-68
2022/03/29 08:08:16;;;;;;;54.17;35.80;;;;;;;;;;4993159;28;20065;-68
2022/03/29 08:10:46;;;;;;;53.83;37.20;;;;;;;;;;4988704;28;20129;-68
2022/03/29 08:13:12;;;;;;;58.70;37.42;;;;;;;;;;4974816;28;20502;-68
2022/03/29 08:15:39;;;;;;;54.85;36.55;;;;;;;;;;4973730;28;20058;-67
2022/03/29 08:18:05;;;;;;;47.33;32.67;;;;;;;;;;4976444;28;20058;-69
2022/03/29 08:20:31;;;;;;;49.38;32.63;;;;;;;;;;4957480;28;20046;-71
2022/03/29 08:23:01;;;;;;;47.55;33.05;;;;;;;;;;4956521;28;20108;-78
2022/03/29 08:25:28;;;;;;;54.40;34.72;;;;;;;;;;4982106;28;20046;-75
2022/03/29 08:27:57;;;;;;;50.20;31.92;;;;;;;;;;4992455;28;20042;-68
2022/03/29 08:30:24;;;;;;;44.53;29.98;;;;;;;;;;4962719;28;20125;-68
2022/03/29 08:32:51;;;;;;;46.13;29.85;;;;;;;;;;4982273;28;20122;-70
2022/03/29 08:35:17;;;;;;;45.50;27.52;;;;;;;;;;4988914;28;20050;-69
2022/03/29 08:37:43;;;;;;;42.17;26.95;;;;;;;;;;4997704;28;20513;-68
2022/03/29 08:40:13;;;;;;;49.63;29.00;;;;;;;;;;4990144;28;20513;-68
2022/03/29 08:42:40;;;;;;;39.47;26.83;;;;;;;;;;4991166;28;20077;-68
2022/03/29 08:45:13;;;;;;;46.47;26.40;;;;;;;;;;4999429;28;20089;-68
2022/03/29 08:47:40;;;;;;;41.78;26.20;;;;;;;;;;4998917;28;20053;-69
2022/03/29 08:50:07;;;;;;;48.13;27.15;;;;;;;;;;4985639;28;20517;-68
2022/03/29 08:52:34;;;;;;;39.47;27.27;;;;;;;;;;4968272;28;20102;-68
2022/03/29 08:55:03;;;;;;;43.60;27.40;;;;;;;;;;4987021;28;20039;-68
2022/03/29 08:57:29;;;;;;;45.00;29.40;;;;;;;;;;4986907;28;20467;-68
2022/03/29 08:59:55;;;;;;;52.00;30.45;;;;;;;;;;4981614;28;20057;-68
2022/03/29 09:02:21;;;;;;;44.85;29.42;;;;;;;;;;4987197;28;20042;-68
2022/03/29 09:05:08;;;;;;;49.17;31.67;;;;;;;;;;4992027;28;20065;-68
2022/03/29 09:07:53;;;;;;;52.22;31.60;;;;;;;;;;4988734;28;20421;-68
2022/03/29 09:10:20;;;;;;;47.85;31.13;;;;;;;;;;4998638;28;20051;-68
2022/03/29 09:12:46;;;;;;;45.88;30.83;;;;;;;;;;4997112;28;20061;-67
2022/03/29 09:15:12;;;;;;;48.38;32.40;;;;;;;;;;4981785;28;20042;-67
2022/03/29 09:17:43;;;;;;;43.40;29.90;;;;;;;;;;4998940;28;20057;-68
2022/03/29 09:20:16;;;;;;;46.83;31.20;;;;;;;;;;4985057;28;20581;-69
2022/03/29 09:22:53;;;;;;;47.20;31.70;;;;;;;;;;4988122;28;20091;-67
2022/03/29 09:25:23;;;;;;;50.97;29.83;;;;;;;;;;4999434;28;20038;-67
2022/03/29 09:27:54;;;;;;;44.42;28.00;;;;;;;;;;4989425;28;20058;-68
2022/03/29 09:30:21;;;;;;;43.67;27.85;;;;;;;;;;4979668;28;20402;-67
2022/03/29 09:32:55;;;;;;;43.42;27.45;;;;;;;;;;4969997;28;20092;-68
2022/03/29 09:35:21;;;;;;;45.38;27.02;;;;;;;;;;4999307;28;20054;-68
2022/03/29 09:37:47;;;;;;;41.47;25.10;;;;;;;;;;4998660;28;20502;-68
2022/03/29 09:40:14;;;;;;;42.00;26.58;;;;;;;;;;4986396;28;20177;-68
2022/03/29 09:42:40;;;;;;;41.60;26.67;;;;;;;;;;4985214;28;20046;-67
2022/03/29 09:45:08;;;;;;;41.28;26.05;;;;;;;;;;4996725;28;20093;-68
2022/03/29 09:47:35;;;;;;;42.67;25.67;;;;;;;;;;4988007;28;20057;-68
2022/03/29 09:50:05;;;;;;;40.53;25.23;;;;;;;;;;4986174;28;20038;-67
2022/03/29 09:52:32;;;;;;;42.00;25.20;;;;;;;;;;4996002;28;20054;-69
2022/03/29 09:55:15;;;;;;;43.22;24.90;;;;;;;;;;4995725;28;20489;-68
2022/03/29 09:57:42;;;;;;;39.60;25.35;;;;;;;;;;4995707;28;20058;-67
2022/03/29 10:00:10;;;;;;;40.33;24.35;;;;;;;;;;4995875;28;20051;-68
2022/03/29 10:02:38;;;;;;;38.45;24.83;;;;;;;;;;4995827;28;20047;-69
2022/03/29 10:05:05;;;;;;;39.42;25.30;;;;;;;;;;4978478;28;20085;-68
2022/03/29 10:07:44;;;;;;;40.20;26.00;;;;;;;;;;4993829;28;20074;-68
2022/03/29 10:10:11;;;;;;;36.65;24.95;;;;;;;;;;4992420;28;20060;-68
2022/03/29 10:12:38;;;;;;;38.20;25.00;;;;;;;;;;4984015;28;20058;-68
2022/03/29 10:15:05;;;;;;;40.10;24.85;;;;;;;;;;4991535;28;20046;-67
2022/03/29 10:17:32;;;;;;;45.28;25.98;;;;;;;;;;4969832;28;20398;-68
2022/03/29 10:19:58;;;;;;;42.00;26.67;;;;;;;;;;4989739;28;20057;-68
2022/03/29 10:22:24;;;;;;;41.65;26.98;;;;;;;;;;4984933;28;20462;-68
2022/03/29 10:24:50;;;;;;;44.75;26.58;;;;;;;;;;4975836;28;20134;-68
2022/03/29 10:27:17;;;;;;;38.60;25.85;;;;;;;;;;4975849;28;20051;-68
2022/03/29 10:29:44;;;;;;;40.53;25.38;;;;;;;;;;4958325;28;20422;-67
2022/03/29 10:32:10;;;;;;;41.10;24.58;;;;;;;;;;4984048;28;20053;-67
2022/03/29 10:34:42;;;;;;;38.60;24.25;;;;;;;;;;4983602;28;20490;-67
2022/03/29 10:37:08;;;;;;;38.70;24.98;;;;;;;;;;4958560;28;20101;-68
2022/03/29 10:39:48;;;;;;;40.90;23.85;;;;;;;;;;4958171;28;20053;-68
2022/03/29 10:42:23;;;;;;;39.17;25.05;;;;;;;;;;4961448;28;20054;-68
2022/03/29 10:45:07;;;;;;;38.88;23.88;;;;;;;;;;4958504;28;20506;-68
2022/03/29 10:47:33;;;;;;;36.95;24.42;;;;;;;;;;4953386;28;20042;-67
2022/03/29 10:50:00;;;;;;;39.97;23.45;;;;;;;;;;4975229;28;20483;-67
2022/03/29 10:52:26;;;;;;;39.42;24.20;;;;;;;;;;4974768;28;20601;-67
2022/03/29 10:54:53;;;;;;;36.58;23.90;;;;;;;;;;4975300;28;20145;-67
2022/03/29 10:57:20;;;;;;;36.67;23.65;;;;;;;;;;4970627;28;20513;-66
2022/03/29 11:00:06;;;;;;;37.25;23.73;;;;;;;;;;4964520;28;20515;-67
2022/03/29 11:02:32;;;;;;;38.20;23.25;;;;;;;;;;4948220;28;20059;-68
2022/03/29 11:05:02;;;;;;;36.10;22.45;;;;;;;;;;4947707;29;20048;-68
2022/03/29 11:07:29;;;;;;;37.13;21.67;;;;;;;;;;4955714;29;20051;-68
2022/03/29 11:10:12;;;;;;;35.08;20.85;;;;;;;;;;4957428;28;20516;-68
2022/03/29 11:12:43;;;;;;;39.10;21.58;;;;;;;;;;4950556;28;20049;-67
2022/03/29 11:15:24;;;;;;;37.83;21.50;;;;;;;;;;4974999;28;20050;-68
2022/03/29 11:17:51;;;;;;;35.03;20.73;;;;;;;;;;4972423;28;20051;-68
2022/03/29 11:20:33;;;;;;;31.02;19.35;;;;;;;;;;4973865;28;20498;-69
2022/03/29 11:23:06;;;;;;;31.40;19.25;;;;;;;;;;4955372;29;20388;-69
2022/03/29 11:25:39;;;;;;;33.47;19.08;;;;;;;;;;4955200;28;20515;-66
2022/03/29 11:28:23;;;;;;;29.77;19.45;;;;;;;;;;4955333;29;20058;-68
2022/03/29 11:30:55;;;;;;;32.22;17.63;;;;;;;;;;4971161;28;20085;-67
2022/03/29 11:33:30;;;;;;;28.08;18.02;;;;;;;;;;4955259;29;20051;-67
2022/03/29 11:35:56;;;;;;;30.40;18.25;;;;;;;;;;4954372;28;20051;-67
2022/03/29 11:38:22;;;;;;;30.33;17.92;;;;;;;;;;4955250;29;20130;-67
2022/03/29 11:40:48;;;;;;;32.65;17.88;;;;;;;;;;4971716;28;20567;-68
2022/03/29 11:43:15;;;;;;;34.83;17.77;;;;;;;;;;4993645;28;20402;-68
2022/03/29 11:45:42;;;;;;;30.25;16.95;;;;;;;;;;4993046;28;20047;-68
2022/03/29 11:48:12;;;;;;;31.58;17.05;;;;;;;;;;4993748;28;20129;-68
2022/03/29 11:50:38;;;;;;;34.40;17.85;;;;;;;;;;4985888;28;20090;-69
2022/03/29 11:53:15;;;;;;;33.08;15.82;;;;;;;;;;4982691;28;20046;-68
2022/03/29 11:55:41;;;;;;;32.95;14.45;;;;;;;;;;4986542;28;20489;-68
2022/03/29 11:58:28;;;;;;;25.73;14.80;;;;;;;;;;4981831;28;20516;-68
2022/03/29 12:00:57;;;;;;;31.13;15.10;;;;;;;;;;4981081;28;20403;-68
2022/03/29 12:03:28;;;;;;;28.80;15.70;;;;;;;;;;4991770;28;20042;-68
2022/03/29 12:06:08;;;;;;;28.55;14.90;;;;;;;;;;4968083;28;20058;-68
2022/03/29 12:08:46;;;;;;;30.80;15.00;;;;;;;;;;4974639;28;20484;-68
2022/03/29 12:11:13;;;;;;;28.08;15.35;;;;;;;;;;4989183;28;20038;-68
2022/03/29 12:13:39;;;;;;;27.95;14.95;;;;;;;;;;4968787;28;20045;-68
2022/03/29 12:16:38;;;;;;;23.60;14.57;;;;;;;;;;4986962;28;20046;-68
2022/03/29 12:19:11;;;;;;;30.80;15.35;;;;;;;;;;4950460;28;20062;-68
2022/03/29 12:21:37;;;;;;;28.35;13.85;;;;;;;;;;4988176;28;20039;-68
2022/03/29 12:24:08;;;;;;;28.30;15.57;;;;;;;;;;4987477;28;20074;-68
2022/03/29 12:26:37;;;;;;;32.07;13.93;;;;;;;;;;4962518;28;20418;-68
2022/03/29 12:29:06;;;;;;;25.42;13.52;;;;;;;;;;4960338;28;20676;-68
2022/03/29 12:31:35;;;;;;;33.60;15.50;;;;;;;;;;4988705;28;20050;-68
2022/03/29 12:34:01;;;;;;;28.42;13.88;;;;;;;;;;4993085;28;20054;-67
2022/03/29 12:36:27;;;;;;;27.65;14.02;;;;;;;;;;4972731;28;20394;-67
2022/03/29 12:38:53;;;;;;;25.15;13.20;;;;;;;;;;4984991;28;20410;-67
2022/03/29 12:41:37;;;;;;;24.58;13.80;;;;;;;;;;4985578;28;20137;-67
2022/03/29 12:44:03;;;;;;;28.30;13.95;;;;;;;;;;4989469;28;20053;-67
2022/03/29 12:46:30;;;;;;;25.95;13.45;;;;;;;;;;4986736;28;20042;-67
2022/03/29 12:48:57;;;;;;;27.02;13.23;;;;;;;;;;4992902;28;20127;-67
2022/03/29 12:51:30;;;;;;;28.90;14.18;;;;;;;;;;4993074;28;20573;-67
2022/03/29 12:53:57;;;;;;;26.52;13.18;;;;;;;;;;4991479;28;20042;-68
2022/03/29 12:56:27;;;;;;;30.25;13.50;;;;;;;;;;4977926;28;20097;-67
2022/03/29 12:58:53;;;;;;;28.45;12.95;;;;;;;;;;4991781;28;20050;-67
2022/03/29 13:01:25;;;;;;;29.77;13.68;;;;;;;;;;4973791;28;20379;-67
2022/03/29 13:03:51;;;;;;;25.50;13.32;;;;;;;;;;4974161;28;20414;-68
2022/03/29 13:06:17;;;;;;;29.30;13.75;;;;;;;;;;4973963;28;20058;-68
2022/03/29 13:08:43;;;;;;;27.23;12.25;;;;;;;;;;4974455;28;20509;-67
2022/03/29 13:11:19;;;;;;;34.80;12.57;;;;;;;;;;4956234;28;20047;-67
2022/03/29 13:14:01;;;;;;;27.55;12.55;;;;;;;;;;4962223;28;20058;-67
2022/03/29 13:16:28;;;;;;;29.02;12.55;;;;;;;;;;4992703;28;20074;-68
2022/03/29 13:18:54;;;;;;;35.25;12.43;;;;;;;;;;4972981;28;20053;-68
2022/03/29 13:21:26;;;;;;;28.65;12.52;;;;;;;;;;4995986;28;20047;-67
2022/03/29 13:23:56;;;;;;;26.75;13.02;;;;;;;;;;4983160;28;20082;-67
2022/03/29 13:26:24;;;;;;;24.80;12.02;;;;;;;;;;4990807;28;20046;-67
2022/03/29 13:28:51;;;;;;;25.30;11.27;;;;;;;;;;4988937;28;20378;-68
2022/03/29 13:31:18;;;;;;;26.42;11.63;;;;;;;;;;4978952;28;20051;-67
2022/03/29 13:33:45;;;;;;;28.70;10.98;;;;;;;;;;4984228;28;20129;-68
2022/03/29 13:36:13;;;;;;;25.38;10.10;;;;;;;;;;4985032;28;20379;-68
2022/03/29 13:38:40;;;;;;;28.73;10.98;;;;;;;;;;4980214;28;20074;-68
2022/03/29 13:41:06;;;;;;;29.67;10.63;;;;;;;;;;4996176;28;20140;-68
2022/03/29 13:43:33;;;;;;;23.48;10.80;;;;;;;;;;4988988;28;20077;-68
2022/03/29 13:45:59;;;;;;;27.85;10.88;;;;;;;;;;4996274;28;20473;-67
2022/03/29 13:48:25;;;;;;;25.58;10.80;;;;;;;;;;4994268;28;20093;-68
2022/03/29 13:50:52;;;;;;;27.60;11.05;;;;;;;;;;4993142;28;20038;-67
2022/03/29 13:53:20;;;;;;;24.52;9.85;;;;;;;;;;4994189;28;20048;-68
2022/03/29 13:55:47;;;;;;;28.38;10.50;;;;;;;;;;4978625;28;20409;-68
2022/03/29 13:58:13;;;;;;;26.13;10.10;;;;;;;;;;4991935;28;20073;-67
2022/03/29 14:00:42;;;;;;;31.10;10.88;;;;;;;;;;4984464;28;20050;-68
2022/03/29 14:03:08;;;;;;;25.77;9.70;;;;;;;;;;4982729;28;20058;-68
2022/03/29 14:05:38;;;;;;;24.92;10.45;;;;;;;;;;4962576;28;20415;-67
2022/03/29 14:08:04;;;;;;;24.58;10.00;;;;;;;;;;4976730;28;20058;-67
2022/03/29 14:10:31;;;;;;;25.70;10.95;;;;;;;;;;4960428;28;20042;-67
2022/03/29 14:12:58;;;;;;;28.27;11.00;;;;;;;;;;4983045;28;20047;-67
2022/03/29 14:15:24;;;;;;;25.73;10.27;;;;;;;;;;4983620;28;20498;-67
2022/03/29 14:17:50;;;;;;;26.35;9.98;;;;;;;;;;4965589;28;20089;-68
2022/03/29 14:20:16;;;;;;;23.80;11.00;;;;;;;;;;4967023;28;20074;-67
2022/03/29 14:22:44;;;;;;;24.25;10.10;;;;;;;;;;4976530;28;20100;-67
2022/03/29 14:25:11;;;;;;;25.55;11.27;;;;;;;;;;4987760;28;20058;-68